Nancy Foster — WTER — position and weather

sailwx.info

Track history (hours):
 
Tides and Currents Weather Stations Pressure Air Temp Water Temp Dewpoint Dewpoint Depression Visibility Wind Speed Wind Dir Waves Ship Positions

Oceanographic research ship Nancy Foster (USA)

Detailed information on ship capabilities available from University of Delaware's Ocean Information Center.

Last reported at 2017-Apr-30 19:53 UTC. Time now 2017-Apr-30 20:36 UTC.
Position N 20°24' W 073°30'.

Type: Other ship. MMSI: 369912000.

Wind from 080 at 22 knots

Barometer 1016.2 mb
Air temperature 27.4 ° C
Water temperature 26.6 ° C

Date/timePositionNaut miles runAvg speedWind from/ knotsBaromVisibWave heightAir tempDewpointWater temp
2017-Apr-30 19:53N 20°24' W 073°30'6 5.6 080 / 221016.2 27.4 26.6
2017-Apr-30 18:53N 20°24' W 073°24'1111.2 090 / 261016.3 28.0 26.7
2017-Apr-30 17:53N 20°24' W 073°12'1312.8 090 / 281017.0 28.3 27.4
2017-Apr-30 16:53N 20°18' W 073°00'1111.3 090 / 261017.5 28.5 27.3
2017-Apr-30 15:53N 20°18' W 072°48'1111.3 100 / 251017.9 27.6 27.3
2017-Apr-30 14:53N 20°18' W 072°36'1111.3 100 / 251018.3 26.6 26.2
2017-Apr-30 13:53N 20°18' W 072°24'1312.8 090 / 171018.7 27.6 26.2
2017-Apr-30 12:53N 20°12' W 072°12'1111.5 110 / 151018.3 26.5 26.2
2017-Apr-30 11:54N 20°12' W 072°00'6 5.6 100 / 191018.4 25.4 26.5
2017-Apr-30 10:54N 20°12' W 071°54'1111.3 100 / 271017.9 24.6 26.7
2017-Apr-30 09:54N 20°12' W 071°42'1111.3 090 / 201017.4 25.7 27.2
2017-Apr-30 08:54N 20°12' W 071°30'1312.8 090 / 191017.0 26.0 27.1
2017-Apr-30 07:54N 20°06' W 071°18'6 5.6 080 / 181017.0 25.6 26.9
2017-Apr-30 06:54N 20°06' W 071°12'1111.3 110 / 191016.9 24.7 26.8
2017-Apr-30 05:54N 20°06' W 071°00'1111.3 080 / 131017.3 25.5 26.6
2017-Apr-30 04:54N 20°06' W 070°48'1312.8 090 / 151017.9 25.8 26.2
2017-Apr-30 03:54N 20°00' W 070°36'1111.3 090 / 141018.8 25.3 26.3
2017-Apr-30 02:54N 20°00' W 070°24'1111.3 100 / 141019.1 25.0 26.4
2017-Apr-30 01:54N 20°00' W 070°12'1111.3 090 / 161019.2 25.7 26.4
2017-Apr-30 00:54N 20°00' W 070°00'2110.7 100 / 181018.9 24.0 26.4
2017-Apr-29 22:58N 19°48' W 069°42'8 8.2 140 / 131018.6 24.3 26.2
2017-Apr-29 21:58N 19°42' W 069°36'1312.8 120 / 151017.7 24.2 26.7
2017-Apr-29 20:58N 19°36' W 069°24'8 8.2 110 / 141017.2 23.5 26.5
2017-Apr-29 19:58N 19°30' W 069°18'1312.8 080 / 141016.9 25.8 26.5
2017-Apr-29 18:58N 19°24' W 069°06'8 8.2 110 / 161017.6 26.5 26.2
2017-Apr-29 17:58N 19°18' W 069°00'1313.0 110 / 181017.4 25.8 26.2
2017-Apr-29 16:59N 19°12' W 068°48'8 8.3 110 / 191018.3 25.5 26.7
2017-Apr-29 15:59N 19°06' W 068°42'1312.8 100 / 211018.4 25.9 26.8
2017-Apr-29 14:59N 19°00' W 068°30'8 8.3 110 / 191018.8 26.8 26.9
2017-Apr-29 13:59N 18°54' W 068°24'1312.8 110 / 201018.7 26.8 26.9
2017-Apr-29 12:59N 18°48' W 068°12'8 8.3 100 / 191018.6 26.6 26.9
2017-Apr-29 11:59N 18°42' W 068°06'1312.9 090 / 171018.2 26.1 26.9
2017-Apr-29 10:59N 18°36' W 067°54'8 8.3 100 / 191017.2 26.4 27.3
2017-Apr-29 09:59N 18°30' W 067°48'1312.9 090 / 181016.9 26.5 27.3
2017-Apr-29 08:59N 18°24' W 067°36'6 6.0 080 / 191016.3 26.1 27.3
2017-Apr-29 07:59N 18°18' W 067°36'1313.3 080 / 141016.3 26.0 27.3
2017-Apr-29 06:59N 18°06' W 067°30'8 8.3 060 / 81016.3 25.9 27.4
2017-Apr-29 05:59N 18°00' W 067°24'1313.5 100 / 111016.8 26.4 27.7
2017-Apr-29 05:00N 17°48' W 067°18'1111.4 100 / 171017.4 27.3 27.4
2017-Apr-29 04:00N 17°48' W 067°06'1111.4 100 / 191018.0 27.6 27.6
2017-Apr-29 03:00N 17°48' W 066°54'5 6.9 090 / 141018.4 27.3 27.5
2017-Apr-29 02:18N 17°50' W 066°50'310.5
2017-Apr-29 02:00N 17°50' W 066°46'5348.8
2017-Apr-29 02:00N 17°48' W 066°42'2 4.3 090 / 211018.2 27.4 27.5
2017-Apr-29 01:30N 17°50' W 066°41'510.5
2017-Apr-29 01:00N 17°49' W 066°35'5329.4
2017-Apr-29 01:00N 17°48' W 066°30'1 2.2 080 / 201018.1 26.9 27.6
2017-Apr-29 00:30N 17°49' W 066°30'611.2
2017-Apr-29 00:00N 17°49' W 066°24'141.1
2017-Apr-29 00:00N 17°48' W 066°24'611.6 080 / 171017.8 27.1 27.6
2017-Apr-28 23:30N 17°48' W 066°18'611.1
2017-Apr-28 23:00N 17°48' W 066°12'019.1
2017-Apr-28 23:00N 17°48' W 066°12'510.6 080 / 181017.3 27.0 27.4
2017-Apr-28 22:30N 17°47' W 066°07'510.8
2017-Apr-28 22:00N 17°47' W 066°01'5395.9
2017-Apr-28 22:00N 17°42' W 066°00'1111.4 090 / 181017.1 27.6 27.3
2017-Apr-28 21:00N 17°42' W 065°48'1111.4 070 / 151016.8 27.0 27.5
2017-Apr-28 20:00N 17°42' W 065°36'   080 / 171016.9 28.0 27.6
2017-Apr-25 13:58N 17°42' W 064°54'6 5.8 130 / 151015.0 27.4 27.4
2017-Apr-25 12:59N 17°42' W 065°00'35 2.9 110 / 161014.9 27.2 27.3
2017-Apr-25 00:48N 17°36' W 064°24'8 4.2 100 / 191013.3 26.7 27.4
2017-Apr-24 22:50N 17°42' W 064°30'6 6.1 110 / 161013.3 26.7 27.3
2017-Apr-24 21:51N 17°48' W 064°30'6 6.1 100 / 181013.1 26.6 27.2
2017-Apr-24 20:52N 17°54' W 064°30'8 8.4 090 / 181012.8 26.5 27.3
2017-Apr-24 19:53N 17°48' W 064°36'6 5.8 100 / 151013.2 26.9 27.3
2017-Apr-24 18:54N 17°48' W 064°30'0 0.0 110 / 181013.5 26.4 27.2
2017-Apr-24 17:55N 17°48' W 064°30'0 0.0 150 / 81014.4 27.3 27.2
2017-Apr-24 16:56N 17°48' W 064°30'0 0.0 100 / 181015.3 26.9 27.2
2017-Apr-24 15:56N 17°48' W 064°30'8 8.4 110 / 191015.6 26.9 27.3
2017-Apr-24 14:57N 17°54' W 064°24'6 5.8 100 / 161015.8 27.7 27.2
2017-Apr-24 13:58N 17°54' W 064°30'0 0.0 100 / 191015.5 27.1 27.2
2017-Apr-24 12:59N 17°54' W 064°30'8 0.8 110 / 181015.7 26.4 27.3
2017-Apr-24 02:48N 17°48' W 064°36'0 0.0 090 / 201015.2 26.5 27.3
2017-Apr-24 01:49N 17°48' W 064°36'0 0.0 090 / 171015.3 26.7 27.3
2017-Apr-24 00:50N 17°48' W 064°36'8 4.3 100 / 191014.7 26.5 27.3
2017-Apr-23 22:55N 17°42' W 064°42'6 6.1 060 / 191013.8 26.4 27.2
2017-Apr-23 21:56N 17°48' W 064°42'0 0.0 100 / 191013.4 26.5 27.4
2017-Apr-23 20:57N 17°48' W 064°42'0 0.0 090 / 231013.2 26.5 27.3
2017-Apr-23 19:58N 17°48' W 064°42'0 0.0 100 / 181013.5 26.6 27.3
2017-Apr-23 18:59N 17°48' W 064°42'12 1.1 080 / 191013.6 26.7 27.4
2017-Apr-23 07:52N 17°56' W 064°52'5 2.5
2017-Apr-23 05:48N 18°00' W 064°48'0 0.0 090 / 181014.9 25.5 27.0
2017-Apr-23 04:49N 18°00' W 064°48'0 0.0 090 / 151015.7 25.8 27.1
2017-Apr-23 03:50N 18°00' W 064°48'0 0.0 090 / 171016.4 25.7 27.1
2017-Apr-23 02:51N 18°00' W 064°48'0 0.0 090 / 181016.5 25.9 27.1
2017-Apr-23 01:51N 18°00' W 064°48'0 0.0 090 / 191016.1 25.7 26.8
2017-Apr-23 00:52N 18°00' W 064°48'643.1 080 / 171016.4 25.7 26.8
2017-Apr-23 00:43N 18°05' W 064°51'0 0.3
2017-Apr-23 00:16N 18°06' W 064°51'0 0.3
2017-Apr-22 23:54N 18°06' W 064°51'3 8.3
2017-Apr-22 23:30N 18°09' W 064°51'4 7.4
2017-Apr-22 22:54N 18°06' W 064°48'633.5 080 / 151015.9 25.7 26.9
2017-Apr-22 22:42N 18°11' W 064°51'2 8.2
2017-Apr-22 22:28N 18°13' W 064°53'3 6.9
2017-Apr-22 22:00N 18°16' W 064°52'553.8
2017-Apr-22 21:55N 18°12' W 064°48'615.5 080 / 151015.6 25.7 27.1
2017-Apr-22 21:30N 18°15' W 064°54'3 4.7
2017-Apr-22 20:56N 18°12' W 064°54'8 8.4 070 / 161015.0 25.7 27.0
2017-Apr-22 19:57N 18°06' W 065°00'0 0.0 090 / 151014.8 25.7 27.0
2017-Apr-22 18:58N 18°06' W 065°00'0 0.0 090 / 161015.7 26.3 27.1
2017-Apr-22 17:58N 18°06' W 065°00'0 0.0 090 / 131016.1 25.7 27.0
2017-Apr-22 16:58N 18°06' W 065°00'6 6.0 090 / 171016.4 25.7 27.1
2017-Apr-22 15:58N 18°12' W 065°00'8 8.3 090 / 161017.4 25.7 27.0
2017-Apr-22 14:58N 18°06' W 065°06'0 0.0 080 / 121018.1 25.9 26.9
2017-Apr-22 13:58N 18°06' W 065°06'0 0.0 100 / 121017.6 26.2 26.9
2017-Apr-22 12:59N 18°06' W 065°06'8 8.3 080 / 161017.5 25.6 26.9
2017-Apr-22 11:59N 18°00' W 065°00'0 0.0 090 / 141016.9 25.8 27.0
2017-Apr-22 10:59N 18°00' W 065°00'8 8.3 050 / 101015.9 25.7 27.1
2017-Apr-22 09:59N 18°06' W 064°54'610.8 050 / 121015.2 25.1 26.9
2017-Apr-22 09:26N 18°11' W 064°57'612.8
2017-Apr-22 08:59N 18°06' W 064°54'636.0 070 / 131014.9 25.3 26.9
2017-Apr-22 08:48N 18°11' W 064°58'0 0.1
2017-Apr-22 08:22N 18°11' W 064°58'513.7
2017-Apr-22 07:59N 18°06' W 065°00'6 6.0 070 / 141014.5 25.2 26.9
2017-Apr-22 06:59N 18°12' W 065°00'6 6.0 060 / 151014.3 25.3 26.9
2017-Apr-22 05:59N 18°06' W 065°00'0 0.0 070 / 131015.3 25.2 26.9
2017-Apr-22 04:59N 18°06' W 065°00'0 0.0 080 / 191015.4 25.3 26.9
2017-Apr-22 03:59N 18°06' W 065°00'0 0.0 070 / 161016.1 25.6 26.9
2017-Apr-22 02:59N 18°06' W 065°00'0 0.0 080 / 161016.9 25.5 26.9
2017-Apr-22 01:59N 18°06' W 065°00'6 6.1 070 / 141016.4 25.5 26.9
2017-Apr-22 01:00N 18°12' W 065°00'0 0.0 080 / 161016.5 25.6 27.0
2017-Apr-22 00:00N 18°12' W 065°00'6 6.0 080 / 191015.6 25.6 27.0
2017-Apr-21 23:00N 18°06' W 065°00'6 5.7 090 / 171015.5 25.9 27.0
2017-Apr-21 22:00N 18°06' W 064°54'0 0.0 090 / 141014.9 25.7 27.0
2017-Apr-21 21:00N 18°06' W 064°54'723.9 070 / 81014.5 26.0 27.0
2017-Apr-21 20:41N 18°12' W 064°57'0 0.3
2017-Apr-21 20:25N 18°12' W 064°57'3 7.9
2017-Apr-21 20:00N 18°12' W 064°54'6 6.0 090 / 141015.3 26.2 27.1
2017-Apr-21 19:00N 18°06' W 064°54'0 0.0 090 / 181014.7 25.7 27.1
2017-Apr-21 18:00N 18°06' W 064°54'0 0.0 100 / 15 26.1 27.1
2017-Apr-21 17:00N 18°06' W 064°54'0 0.0 080 / 161016.2 25.9 27.1
2017-Apr-21 16:00N 18°06' W 064°54'0 0.0 080 / 131016.6 25.8 27.0
2017-Apr-21 15:00N 18°06' W 064°54'8 8.3 060 / 41016.9 26.1 27.0
2017-Apr-21 14:00N 18°12' W 065°00'710.4 090 / 181017.0 26.0 27.0
2017-Apr-21 13:17N 18°19' W 065°01'2 5.5
2017-Apr-21 13:00N 18°18' W 065°00'261.8 070 / 131017.0 25.9 27.1
2017-Apr-21 12:58N 18°20' W 065°00'  
Track history (hours):
 
Tides and Currents Weather Stations Pressure Air Temp Water Temp Dewpoint Dewpoint Depression Visibility Wind Speed Wind Dir Waves Ship Positions

Oceanographic research ship Nancy Foster (USA)

Detailed information on ship capabilities available from University of Delaware's Ocean Information Center.

Last reported at 2017-Apr-30 19:53 UTC. Time now 2017-Apr-30 20:36 UTC.
Position N 20°24' W 073°30'.

Type: Other ship. MMSI: 369912000.

Wind from 080 at 22 knots

Barometer 1016.2 mb
Air temperature 27.4 ° C
Water temperature 26.6 ° C

Date/timePositionNaut miles runAvg speedWind from/ knotsBaromVisibWave heightAir tempDewpointWater temp
2017-Apr-30 19:53N 20°24' W 073°30'6 5.6 080 / 221016.2 27.4 26.6
2017-Apr-30 18:53N 20°24' W 073°24'1111.2 090 / 261016.3 28.0 26.7
2017-Apr-30 17:53N 20°24' W 073°12'1312.8 090 / 281017.0 28.3 27.4
2017-Apr-30 16:53N 20°18' W 073°00'1111.3 090 / 261017.5 28.5 27.3
2017-Apr-30 15:53N 20°18' W 072°48'1111.3 100 / 251017.9 27.6 27.3
2017-Apr-30 14:53N 20°18' W 072°36'1111.3 100 / 251018.3 26.6 26.2
2017-Apr-30 13:53N 20°18' W 072°24'1312.8 090 / 171018.7 27.6 26.2
2017-Apr-30 12:53N 20°12' W 072°12'1111.5 110 / 151018.3 26.5 26.2
2017-Apr-30 11:54N 20°12' W 072°00'6 5.6 100 / 191018.4 25.4 26.5
2017-Apr-30 10:54N 20°12' W 071°54'1111.3 100 / 271017.9 24.6 26.7
2017-Apr-30 09:54N 20°12' W 071°42'1111.3 090 / 201017.4 25.7 27.2
2017-Apr-30 08:54N 20°12' W 071°30'1312.8 090 / 191017.0 26.0 27.1
2017-Apr-30 07:54N 20°06' W 071°18'6 5.6 080 / 181017.0 25.6 26.9
2017-Apr-30 06:54N 20°06' W 071°12'1111.3 110 / 191016.9 24.7 26.8
2017-Apr-30 05:54N 20°06' W 071°00'1111.3 080 / 131017.3 25.5 26.6
2017-Apr-30 04:54N 20°06' W 070°48'1312.8 090 / 151017.9 25.8 26.2
2017-Apr-30 03:54N 20°00' W 070°36'1111.3 090 / 141018.8 25.3 26.3
2017-Apr-30 02:54N 20°00' W 070°24'1111.3 100 / 141019.1 25.0 26.4
2017-Apr-30 01:54N 20°00' W 070°12'1111.3 090 / 161019.2 25.7 26.4
2017-Apr-30 00:54N 20°00' W 070°00'2110.7 100 / 181018.9 24.0 26.4
2017-Apr-29 22:58N 19°48' W 069°42'8 8.2 140 / 131018.6 24.3 26.2
2017-Apr-29 21:58N 19°42' W 069°36'1312.8 120 / 151017.7 24.2 26.7
2017-Apr-29 20:58N 19°36' W 069°24'8 8.2 110 / 141017.2 23.5 26.5
2017-Apr-29 19:58N 19°30' W 069°18'1312.8 080 / 141016.9 25.8 26.5
2017-Apr-29 18:58N 19°24' W 069°06'8 8.2 110 / 161017.6 26.5 26.2
2017-Apr-29 17:58N 19°18' W 069°00'1313.0 110 / 181017.4 25.8 26.2
2017-Apr-29 16:59N 19°12' W 068°48'8 8.3 110 / 191018.3 25.5 26.7
2017-Apr-29 15:59N 19°06' W 068°42'1312.8 100 / 211018.4 25.9 26.8
2017-Apr-29 14:59N 19°00' W 068°30'8 8.3 110 / 191018.8 26.8 26.9
2017-Apr-29 13:59N 18°54' W 068°24'1312.8 110 / 201018.7 26.8 26.9
2017-Apr-29 12:59N 18°48' W 068°12'8 8.3 100 / 191018.6 26.6 26.9
2017-Apr-29 11:59N 18°42' W 068°06'1312.9 090 / 171018.2 26.1 26.9
2017-Apr-29 10:59N 18°36' W 067°54'8 8.3 100 / 191017.2 26.4 27.3
2017-Apr-29 09:59N 18°30' W 067°48'1312.9 090 / 181016.9 26.5 27.3
2017-Apr-29 08:59N 18°24' W 067°36'6 6.0 080 / 191016.3 26.1 27.3
2017-Apr-29 07:59N 18°18' W 067°36'1313.3 080 / 141016.3 26.0 27.3
2017-Apr-29 06:59N 18°06' W 067°30'8 8.3 060 / 81016.3 25.9 27.4
2017-Apr-29 05:59N 18°00' W 067°24'1313.5 100 / 111016.8 26.4 27.7
2017-Apr-29 05:00N 17°48' W 067°18'1111.4 100 / 171017.4 27.3 27.4
2017-Apr-29 04:00N 17°48' W 067°06'1111.4 100 / 191018.0 27.6 27.6
2017-Apr-29 03:00N 17°48' W 066°54'5 6.9 090 / 141018.4 27.3 27.5
2017-Apr-29 02:18N 17°50' W 066°50'310.5
2017-Apr-29 02:00N 17°50' W 066°46'5348.8
2017-Apr-29 02:00N 17°48' W 066°42'2 4.3 090 / 211018.2 27.4 27.5
2017-Apr-29 01:30N 17°50' W 066°41'510.5
2017-Apr-29 01:00N 17°49' W 066°35'5329.4
2017-Apr-29 01:00N 17°48' W 066°30'1 2.2 080 / 201018.1 26.9 27.6
2017-Apr-29 00:30N 17°49' W 066°30'611.2
2017-Apr-29 00:00N 17°49' W 066°24'141.1
2017-Apr-29 00:00N 17°48' W 066°24'611.6 080 / 171017.8 27.1 27.6
2017-Apr-28 23:30N 17°48' W 066°18'611.1
2017-Apr-28 23:00N 17°48' W 066°12'019.1
2017-Apr-28 23:00N 17°48' W 066°12'510.6 080 / 181017.3 27.0 27.4
2017-Apr-28 22:30N 17°47' W 066°07'510.8
2017-Apr-28 22:00N 17°47' W 066°01'5395.9
2017-Apr-28 22:00N 17°42' W 066°00'1111.4 090 / 181017.1 27.6 27.3
2017-Apr-28 21:00N 17°42' W 065°48'1111.4 070 / 151016.8 27.0 27.5
2017-Apr-28 20:00N 17°42' W 065°36'   080 / 171016.9 28.0 27.6
2017-Apr-25 13:58N 17°42' W 064°54'6 5.8 130 / 151015.0 27.4 27.4
2017-Apr-25 12:59N 17°42' W 065°00'35 2.9 110 / 161014.9 27.2 27.3
2017-Apr-25 00:48N 17°36' W 064°24'8 4.2 100 / 191013.3 26.7 27.4
2017-Apr-24 22:50N 17°42' W 064°30'6 6.1 110 / 161013.3 26.7 27.3
2017-Apr-24 21:51N 17°48' W 064°30'6 6.1 100 / 181013.1 26.6 27.2
2017-Apr-24 20:52N 17°54' W 064°30'8 8.4 090 / 181012.8 26.5 27.3
2017-Apr-24 19:53N 17°48' W 064°36'6 5.8 100 / 151013.2 26.9 27.3
2017-Apr-24 18:54N 17°48' W 064°30'0 0.0 110 / 181013.5 26.4 27.2
2017-Apr-24 17:55N 17°48' W 064°30'0 0.0 150 / 81014.4 27.3 27.2
2017-Apr-24 16:56N 17°48' W 064°30'0 0.0 100 / 181015.3 26.9 27.2
2017-Apr-24 15:56N 17°48' W 064°30'8 8.4 110 / 191015.6 26.9 27.3
2017-Apr-24 14:57N 17°54' W 064°24'6 5.8 100 / 161015.8 27.7 27.2
2017-Apr-24 13:58N 17°54' W 064°30'0 0.0 100 / 191015.5 27.1 27.2
2017-Apr-24 12:59N 17°54' W 064°30'8 0.8 110 / 181015.7 26.4 27.3
2017-Apr-24 02:48N 17°48' W 064°36'0 0.0 090 / 201015.2 26.5 27.3
2017-Apr-24 01:49N 17°48' W 064°36'0 0.0 090 / 171015.3 26.7 27.3
2017-Apr-24 00:50N 17°48' W 064°36'8 4.3 100 / 191014.7 26.5 27.3
2017-Apr-23 22:55N 17°42' W 064°42'6 6.1 060 / 191013.8 26.4 27.2
2017-Apr-23 21:56N 17°48' W 064°42'0 0.0 100 / 191013.4 26.5 27.4
2017-Apr-23 20:57N 17°48' W 064°42'0 0.0 090 / 231013.2 26.5 27.3
2017-Apr-23 19:58N 17°48' W 064°42'0 0.0 100 / 181013.5 26.6 27.3
2017-Apr-23 18:59N 17°48' W 064°42'12 1.1 080 / 191013.6 26.7 27.4
2017-Apr-23 07:52N 17°56' W 064°52'5 2.5
2017-Apr-23 05:48N 18°00' W 064°48'0 0.0 090 / 181014.9 25.5 27.0
2017-Apr-23 04:49N 18°00' W 064°48'0 0.0 090 / 151015.7 25.8 27.1
2017-Apr-23 03:50N 18°00' W 064°48'0 0.0 090 / 171016.4 25.7 27.1
2017-Apr-23 02:51N 18°00' W 064°48'0 0.0 090 / 181016.5 25.9 27.1
2017-Apr-23 01:51N 18°00' W 064°48'0 0.0 090 / 191016.1 25.7 26.8
2017-Apr-23 00:52N 18°00' W 064°48'643.1 080 / 171016.4 25.7 26.8
2017-Apr-23 00:43N 18°05' W 064°51'0 0.3
2017-Apr-23 00:16N 18°06' W 064°51'0 0.3
2017-Apr-22 23:54N 18°06' W 064°51'3 8.3
2017-Apr-22 23:30N 18°09' W 064°51'4 7.4
2017-Apr-22 22:54N 18°06' W 064°48'633.5 080 / 151015.9 25.7 26.9
2017-Apr-22 22:42N 18°11' W 064°51'2 8.2
2017-Apr-22 22:28N 18°13' W 064°53'3 6.9
2017-Apr-22 22:00N 18°16' W 064°52'553.8
2017-Apr-22 21:55N 18°12' W 064°48'615.5 080 / 151015.6 25.7 27.1
2017-Apr-22 21:30N 18°15' W 064°54'3 4.7
2017-Apr-22 20:56N 18°12' W 064°54'8 8.4 070 / 161015.0 25.7 27.0
2017-Apr-22 19:57N 18°06' W 065°00'0 0.0 090 / 151014.8 25.7 27.0
2017-Apr-22 18:58N 18°06' W 065°00'0 0.0 090 / 161015.7 26.3 27.1
2017-Apr-22 17:58N 18°06' W 065°00'0 0.0 090 / 131016.1 25.7 27.0
2017-Apr-22 16:58N 18°06' W 065°00'6 6.0 090 / 171016.4 25.7 27.1
2017-Apr-22 15:58N 18°12' W 065°00'8 8.3 090 / 161017.4 25.7 27.0
2017-Apr-22 14:58N 18°06' W 065°06'0 0.0 080 / 121018.1 25.9 26.9
2017-Apr-22 13:58N 18°06' W 065°06'0 0.0 100 / 121017.6 26.2 26.9
2017-Apr-22 12:59N 18°06' W 065°06'8 8.3 080 / 161017.5 25.6 26.9
2017-Apr-22 11:59N 18°00' W 065°00'0 0.0 090 / 141016.9 25.8 27.0
2017-Apr-22 10:59N 18°00' W 065°00'8 8.3 050 / 101015.9 25.7 27.1
2017-Apr-22 09:59N 18°06' W 064°54'610.8 050 / 121015.2 25.1 26.9
2017-Apr-22 09:26N 18°11' W 064°57'612.8
2017-Apr-22 08:59N 18°06' W 064°54'636.0 070 / 131014.9 25.3 26.9
2017-Apr-22 08:48N 18°11' W 064°58'0 0.1
2017-Apr-22 08:22N 18°11' W 064°58'513.7
2017-Apr-22 07:59N 18°06' W 065°00'6 6.0 070 / 141014.5 25.2 26.9
2017-Apr-22 06:59N 18°12' W 065°00'6 6.0 060 / 151014.3 25.3 26.9
2017-Apr-22 05:59N 18°06' W 065°00'0 0.0 070 / 131015.3 25.2 26.9
2017-Apr-22 04:59N 18°06' W 065°00'0 0.0 080 / 191015.4 25.3 26.9
2017-Apr-22 03:59N 18°06' W 065°00'0 0.0 070 / 161016.1 25.6 26.9
2017-Apr-22 02:59N 18°06' W 065°00'0 0.0 080 / 161016.9 25.5 26.9
2017-Apr-22 01:59N 18°06' W 065°00'6 6.1 070 / 141016.4 25.5 26.9
2017-Apr-22 01:00N 18°12' W 065°00'0 0.0 080 / 161016.5 25.6 27.0
2017-Apr-22 00:00N 18°12' W 065°00'6 6.0 080 / 191015.6 25.6 27.0
2017-Apr-21 23:00N 18°06' W 065°00'6 5.7 090 / 171015.5 25.9 27.0
2017-Apr-21 22:00N 18°06' W 064°54'0 0.0 090 / 141014.9 25.7 27.0
2017-Apr-21 21:00N 18°06' W 064°54'723.9 070 / 81014.5 26.0 27.0
2017-Apr-21 20:41N 18°12' W 064°57'0 0.3
2017-Apr-21 20:25N 18°12' W 064°57'3 7.9
2017-Apr-21 20:00N 18°12' W 064°54'6 6.0 090 / 141015.3 26.2 27.1
2017-Apr-21 19:00N 18°06' W 064°54'0 0.0 090 / 181014.7 25.7 27.1
2017-Apr-21 18:00N 18°06' W 064°54'0 0.0 100 / 15 26.1 27.1
2017-Apr-21 17:00N 18°06' W 064°54'0 0.0 080 / 161016.2 25.9 27.1
2017-Apr-21 16:00N 18°06' W 064°54'0 0.0 080 / 131016.6 25.8 27.0
2017-Apr-21 15:00N 18°06' W 064°54'8 8.3 060 / 41016.9 26.1 27.0
2017-Apr-21 14:00N 18°12' W 065°00'710.4 090 / 181017.0 26.0 27.0
2017-Apr-21 13:17N 18°19' W 065°01'2 5.5
2017-Apr-21 13:00N 18°18' W 065°00'261.8 070 / 131017.0 25.9 27.1
2017-Apr-21 12:58N 18°20' W 065°00'  

Dump ship's entire track history